createdAt,value
2022-10-02T00:02:32.870Z,11.73
2022-10-02T00:05:07.336Z,11.72
2022-10-02T00:07:46.398Z,11.70
2022-10-02T00:10:18.832Z,11.68
2022-10-02T00:12:48.046Z,11.65
2022-10-02T00:15:23.632Z,11.62
2022-10-02T00:17:53.282Z,11.61
2022-10-02T00:20:27.592Z,11.59
2022-10-02T00:23:16.275Z,11.58
2022-10-02T00:25:56.179Z,11.56
2022-10-02T00:28:31.311Z,11.56
2022-10-02T00:31:26.872Z,11.54
2022-10-02T00:34:21.468Z,11.57
2022-10-02T00:37:01.413Z,11.62
2022-10-02T00:39:30.719Z,11.66
2022-10-02T00:42:15.549Z,11.70
2022-10-02T00:44:53.970Z,11.73
2022-10-02T00:47:43.641Z,11.75
2022-10-02T00:50:24.509Z,11.76
2022-10-02T00:53:28.900Z,11.74
2022-10-02T00:56:22.081Z,11.71
2022-10-02T00:59:18.997Z,11.68
2022-10-02T01:01:58.661Z,11.65
2022-10-02T01:04:34.694Z,11.63
2022-10-02T01:07:04.027Z,11.60
2022-10-02T01:09:30.868Z,11.57
2022-10-02T01:11:57.578Z,11.55
2022-10-02T01:14:34.594Z,11.53
2022-10-02T01:17:01.981Z,11.50
2022-10-02T01:19:37.633Z,11.48
2022-10-02T01:22:23.548Z,11.45
2022-10-02T01:24:55.112Z,11.44
2022-10-02T01:27:22.161Z,11.42
2022-10-02T01:29:55.484Z,11.40
2022-10-02T01:32:25.932Z,11.40
2022-10-02T01:34:56.484Z,11.41
2022-10-02T01:37:26.185Z,11.42
2022-10-02T01:39:52.988Z,11.44
2022-10-02T01:42:21.291Z,11.44
2022-10-02T01:44:48.454Z,11.46
2022-10-02T01:47:46.131Z,11.46
2022-10-02T01:50:21.763Z,11.46
2022-10-02T01:52:59.566Z,11.49
2022-10-02T01:55:50.718Z,11.50
2022-10-02T01:58:26.259Z,11.49
2022-10-02T02:01:01.240Z,11.49
2022-10-02T02:03:43.150Z,11.48
2022-10-02T02:06:24.745Z,11.48
2022-10-02T02:09:09.710Z,11.46
2022-10-02T02:11:41.033Z,11.46
2022-10-02T02:14:17.420Z,11.47
2022-10-02T02:16:49.861Z,11.46
2022-10-02T02:19:27.674Z,11.49
2022-10-02T02:21:58.556Z,11.49
2022-10-02T02:24:31.264Z,11.48
2022-10-02T02:27:01.410Z,11.47
2022-10-02T02:29:32.155Z,11.44
2022-10-02T02:32:02.827Z,11.42
2022-10-02T02:34:37.111Z,11.40
2022-10-02T02:37:13.717Z,11.38
2022-10-02T02:39:52.580Z,11.38
2022-10-02T02:42:26.222Z,11.34
2022-10-02T02:45:01.006Z,11.36
2022-10-02T02:47:45.093Z,11.37
2022-10-02T02:50:11.524Z,11.41
2022-10-02T02:52:44.799Z,11.45
2022-10-02T02:55:27.019Z,11.47
2022-10-02T02:58:05.248Z,11.50
2022-10-02T03:00:31.725Z,11.51
2022-10-02T03:02:58.432Z,11.50
2022-10-02T03:05:25.631Z,11.50
2022-10-02T03:07:59.159Z,11.51
2022-10-02T03:10:44.230Z,11.49
2022-10-02T03:13:33.854Z,11.48
2022-10-02T03:16:42.120Z,11.46
2022-10-02T03:19:39.142Z,11.43
2022-10-02T03:22:11.826Z,11.39
2022-10-02T03:25:02.724Z,11.38
2022-10-02T03:27:36.912Z,11.31
2022-10-02T03:30:12.718Z,11.28
2022-10-02T03:32:41.583Z,11.24
2022-10-02T03:35:14.127Z,11.22
2022-10-02T03:37:49.533Z,11.20
2022-10-02T03:40:16.252Z,11.20
2022-10-02T03:42:42.849Z,11.21
2022-10-02T03:45:09.656Z,11.23
2022-10-02T03:47:36.131Z,11.26
2022-10-02T03:50:02.519Z,11.30
2022-10-02T03:52:32.405Z,11.29
2022-10-02T03:55:03.887Z,11.27
2022-10-02T03:57:33.935Z,11.27
2022-10-02T04:00:09.192Z,11.26
2022-10-02T04:02:52.303Z,11.27
2022-10-02T04:05:29.975Z,11.28
2022-10-02T04:08:02.118Z,11.26
2022-10-02T04:10:40.581Z,11.25
2022-10-02T04:13:16.468Z,11.25
2022-10-02T04:15:57.772Z,11.26
2022-10-02T04:18:29.119Z,11.24
2022-10-02T04:21:03.352Z,11.20
2022-10-02T04:23:42.493Z,11.16
2022-10-02T04:26:20.711Z,11.11
2022-10-02T04:28:59.621Z,11.05
2022-10-02T04:31:27.946Z,11.01
2022-10-02T04:33:59.090Z,11.01
2022-10-02T04:36:31.484Z,11.01
2022-10-02T04:39:03.008Z,10.99
2022-10-02T04:41:35.333Z,10.97
2022-10-02T04:44:34.371Z,10.93
2022-10-02T04:47:11.679Z,10.89
2022-10-02T04:49:52.367Z,10.87
2022-10-02T04:52:37.493Z,10.83
2022-10-02T04:55:31.488Z,10.80
2022-10-02T04:58:22.249Z,10.78
2022-10-02T05:00:51.629Z,10.75
2022-10-02T05:03:43.452Z,10.76
2022-10-02T05:06:28.487Z,10.73
2022-10-02T05:09:16.789Z,10.72
2022-10-02T05:12:08.177Z,10.75
2022-10-02T05:14:56.256Z,10.78
2022-10-02T05:17:39.919Z,10.84
2022-10-02T05:20:35.361Z,10.89
2022-10-02T05:23:30.852Z,10.94
2022-10-02T05:26:03.461Z,11.01
2022-10-02T05:29:07.983Z,11.11
2022-10-02T05:31:52.624Z,11.14
2022-10-02T05:34:46.679Z,11.16
2022-10-02T05:37:31.763Z,11.18
2022-10-02T05:40:26.240Z,11.21
2022-10-02T05:43:06.112Z,11.23
2022-10-02T05:45:38.384Z,11.24
2022-10-02T05:48:13.720Z,11.24
2022-10-02T05:50:41.484Z,11.22
2022-10-02T05:53:22.389Z,11.21
2022-10-02T05:55:55.195Z,11.21
2022-10-02T05:58:30.477Z,11.21
2022-10-02T06:01:03.818Z,11.19
2022-10-02T06:03:52.680Z,11.21
2022-10-02T06:06:41.435Z,11.23
2022-10-02T06:09:20.533Z,11.24
2022-10-02T06:12:01.608Z,11.27
2022-10-02T06:14:36.567Z,11.27
2022-10-02T06:17:12.587Z,11.29
2022-10-02T06:19:47.064Z,11.32
2022-10-02T06:22:24.797Z,11.35
2022-10-02T06:24:58.067Z,11.36
2022-10-02T06:27:44.223Z,11.38
2022-10-02T06:30:14.160Z,11.37
2022-10-02T06:32:58.648Z,11.41
2022-10-02T06:35:46.734Z,11.46
2022-10-02T06:38:25.131Z,11.49
2022-10-02T06:40:56.555Z,11.55
2022-10-02T06:43:50.737Z,11.58
2022-10-02T06:47:01.258Z,11.64
2022-10-02T06:49:36.877Z,11.68
2022-10-02T06:52:19.384Z,11.74
2022-10-02T06:55:08.010Z,11.78
2022-10-02T06:57:52.875Z,11.81
2022-10-02T07:00:21.800Z,11.84
2022-10-02T07:03:18.934Z,11.91
2022-10-02T07:05:54.012Z,11.97
2022-10-02T07:08:51.444Z,12.02
2022-10-02T07:11:28.120Z,12.08
2022-10-02T07:14:16.872Z,12.13
2022-10-02T07:17:08.227Z,12.18
2022-10-02T07:20:02.465Z,12.21
2022-10-02T07:22:49.555Z,12.24
2022-10-02T07:25:31.124Z,12.29
2022-10-02T07:28:45.762Z,12.32
2022-10-02T07:31:46.062Z,12.39
2022-10-02T07:34:43.834Z,12.45
2022-10-02T07:37:13.167Z,12.49
2022-10-02T07:39:53.957Z,12.55
2022-10-02T07:42:33.760Z,12.61
2022-10-02T07:45:22.227Z,12.67
2022-10-02T07:48:02.148Z,12.76
2022-10-02T07:50:58.034Z,12.85
2022-10-02T07:53:51.464Z,12.95
2022-10-02T07:56:22.559Z,13.05
2022-10-02T07:58:57.002Z,13.14
2022-10-02T08:01:29.208Z,13.27
2022-10-02T08:04:00.326Z,13.45
2022-10-02T08:06:27.059Z,13.69
2022-10-02T08:09:06.165Z,13.74
2022-10-02T08:11:56.580Z,13.76
2022-10-02T08:14:28.727Z,13.76
2022-10-02T08:17:00.867Z,13.74
2022-10-02T08:19:39.310Z,13.77
2022-10-02T08:22:24.810Z,13.80
2022-10-02T08:24:57.636Z,13.81
2022-10-02T08:27:50.061Z,13.87
2022-10-02T08:30:16.756Z,13.92
2022-10-02T08:32:43.895Z,13.99
2022-10-02T08:35:15.805Z,14.05
2022-10-02T08:38:31.532Z,14.10
2022-10-02T08:41:12.923Z,14.30
2022-10-02T08:44:03.954Z,14.54
2022-10-02T08:46:58.385Z,14.67
2022-10-02T08:50:01.747Z,14.84
2022-10-02T08:52:41.852Z,14.94
2022-10-02T08:55:50.559Z,14.89
2022-10-02T08:59:05.381Z,14.90
2022-10-02T09:02:02.380Z,15.02
2022-10-02T09:04:59.535Z,15.11
2022-10-02T09:08:02.660Z,15.26
2022-10-02T09:10:53.324Z,15.31
2022-10-02T09:13:40.112Z,15.45
2022-10-02T09:16:27.905Z,15.57
2022-10-02T09:19:00.075Z,15.43
2022-10-02T09:21:44.851Z,15.33
2022-10-02T09:24:23.312Z,15.25
2022-10-02T09:27:27.112Z,15.19
2022-10-02T09:30:12.172Z,15.17
2022-10-02T09:32:59.594Z,15.17
2022-10-02T09:36:01.820Z,15.16
2022-10-02T09:39:12.231Z,15.12
2022-10-02T09:42:15.633Z,15.04
2022-10-02T09:45:09.843Z,15.06
2022-10-02T09:48:16.832Z,15.30
2022-10-02T09:51:17.602Z,15.51
2022-10-02T09:54:01.667Z,15.66
2022-10-02T09:56:49.350Z,15.91
2022-10-02T09:59:49.017Z,15.93
2022-10-02T10:02:30.706Z,16.04
2022-10-02T10:05:13.010Z,16.15
2022-10-02T10:08:06.643Z,16.13
2022-10-02T10:11:07.766Z,16.04
2022-10-02T10:13:59.652Z,15.93
2022-10-02T10:16:44.402Z,15.96
2022-10-02T10:19:13.786Z,15.95
2022-10-02T10:21:58.825Z,16.04
2022-10-02T10:24:54.578Z,16.16
2022-10-02T10:27:42.961Z,16.32
2022-10-02T10:30:21.887Z,16.39
2022-10-02T10:33:05.758Z,16.45
2022-10-02T10:36:36.525Z,16.55
2022-10-02T10:39:21.365Z,16.73
2022-10-02T10:42:06.580Z,16.75
2022-10-02T10:45:03.950Z,16.66
2022-10-02T10:48:25.024Z,16.69
2022-10-02T10:51:02.177Z,16.73
2022-10-02T10:54:01.014Z,16.78
2022-10-02T10:56:43.283Z,16.86
2022-10-02T10:59:48.280Z,16.85
2022-10-02T11:02:35.938Z,16.64
2022-10-02T11:05:17.437Z,16.38
2022-10-02T11:07:44.473Z,16.26
2022-10-02T11:10:22.716Z,16.15
2022-10-02T11:12:55.102Z,16.07
2022-10-02T11:15:50.281Z,16.05
2022-10-02T11:18:52.203Z,16.10
2022-10-02T11:21:39.878Z,16.24
2022-10-02T11:24:31.381Z,16.28
2022-10-02T11:27:24.765Z,16.39
2022-10-02T11:30:12.683Z,16.57
2022-10-02T11:33:13.005Z,16.60
2022-10-02T11:36:16.956Z,16.64
2022-10-02T11:39:24.397Z,16.66
2022-10-02T11:42:43.212Z,16.72
2022-10-02T11:45:33.879Z,16.75
2022-10-02T11:48:31.909Z,16.71
2022-10-02T11:51:17.302Z,16.70
2022-10-02T11:54:19.963Z,16.72
2022-10-02T11:57:00.594Z,16.75
2022-10-02T12:00:05.468Z,16.76
2022-10-02T12:02:42.993Z,16.64
2022-10-02T12:05:33.693Z,16.54
2022-10-02T12:08:37.885Z,16.59
2022-10-02T12:11:33.118Z,16.73
2022-10-02T12:14:11.943Z,16.83
2022-10-02T12:17:00.886Z,16.90
2022-10-02T12:19:39.519Z,17.03
2022-10-02T12:22:35.793Z,17.23
2022-10-02T12:25:39.029Z,17.02
2022-10-02T12:28:31.431Z,16.87
2022-10-02T12:31:25.167Z,16.71
2022-10-02T12:33:56.742Z,16.56
2022-10-02T12:36:33.887Z,16.49
2022-10-02T12:39:27.468Z,16.45
2022-10-02T12:42:11.623Z,16.37
2022-10-02T12:45:16.381Z,16.32
2022-10-02T12:48:03.763Z,16.33
2022-10-02T12:50:39.819Z,16.39
2022-10-02T12:53:36.003Z,16.43
2022-10-02T12:56:22.880Z,16.43
2022-10-02T12:58:58.049Z,16.34
2022-10-02T13:01:52.474Z,16.26
2022-10-02T13:04:37.918Z,16.26
2022-10-02T13:07:32.027Z,16.33
2022-10-02T13:10:01.325Z,16.52
2022-10-02T13:12:55.153Z,16.72
2022-10-02T13:15:46.213Z,16.85
2022-10-02T13:18:43.786Z,16.91
2022-10-02T13:21:29.576Z,17.14
2022-10-02T13:24:08.496Z,17.28
2022-10-02T13:27:07.287Z,17.39
2022-10-02T13:30:01.966Z,17.42
2022-10-02T13:32:42.072Z,17.42
2022-10-02T13:35:35.984Z,17.43
2022-10-02T13:38:39.931Z,17.30
2022-10-02T13:41:39.805Z,17.17
2022-10-02T13:44:30.728Z,16.91
2022-10-02T13:47:23.884Z,16.78
2022-10-02T13:50:18.405Z,16.65
2022-10-02T13:53:03.619Z,16.57
2022-10-02T13:56:03.941Z,16.56
2022-10-02T13:58:33.303Z,16.66
2022-10-02T14:01:19.043Z,16.86
2022-10-02T14:04:13.391Z,16.92
2022-10-02T14:06:44.357Z,16.85
2022-10-02T14:09:51.602Z,16.82
2022-10-02T14:12:27.520Z,16.82
2022-10-02T14:15:12.506Z,16.87
2022-10-02T14:17:38.844Z,16.80
2022-10-02T14:20:39.492Z,16.70
2022-10-02T14:23:21.959Z,16.66
2022-10-02T14:25:54.485Z,16.58
2022-10-02T14:28:36.792Z,16.50
2022-10-02T14:31:32.184Z,16.51
2022-10-02T14:34:10.364Z,16.58
2022-10-02T14:37:00.099Z,16.67
2022-10-02T14:39:31.562Z,16.79
2022-10-02T14:42:15.575Z,16.84
2022-10-02T14:44:56.860Z,16.88
2022-10-02T14:47:34.952Z,16.89
2022-10-02T14:50:18.177Z,16.82
2022-10-02T14:53:05.870Z,16.77
2022-10-02T14:55:43.414Z,16.76
2022-10-02T14:58:12.744Z,16.77
2022-10-02T15:01:10.690Z,16.83
2022-10-02T15:03:56.196Z,16.87
2022-10-02T15:06:53.548Z,16.79
2022-10-02T15:09:25.069Z,16.68
2022-10-02T15:12:09.659Z,16.59
2022-10-02T15:14:50.123Z,16.51
2022-10-02T15:17:50.670Z,16.41
2022-10-02T15:20:26.152Z,16.34
2022-10-02T15:23:00.814Z,16.31
2022-10-02T15:25:45.663Z,16.22
2022-10-02T15:28:36.324Z,16.13
2022-10-02T15:31:21.230Z,16.08
2022-10-02T15:34:02.801Z,16.01
2022-10-02T15:36:43.750Z,15.95
2022-10-02T15:39:33.044Z,15.93
2022-10-02T15:42:08.680Z,15.90
2022-10-02T15:44:50.245Z,15.87
2022-10-02T15:47:35.652Z,15.83
2022-10-02T15:50:26.930Z,15.80
2022-10-02T15:53:11.657Z,15.79
2022-10-02T15:55:49.709Z,15.75
2022-10-02T15:58:41.868Z,15.67
2022-10-02T16:01:47.567Z,15.64
2022-10-02T16:04:29.516Z,15.57
2022-10-02T16:07:43.707Z,15.58
2022-10-02T16:10:20.481Z,15.52
2022-10-02T16:13:18.656Z,15.48
2022-10-02T16:16:00.188Z,15.43
2022-10-02T16:18:50.405Z,15.37
2022-10-02T16:21:22.836Z,15.31
2022-10-02T16:24:18.677Z,15.26
2022-10-02T16:27:06.132Z,15.22
2022-10-02T16:30:05.303Z,15.16
2022-10-02T16:33:00.927Z,15.12
2022-10-02T16:36:02.040Z,15.07
2022-10-02T16:38:49.341Z,14.98
2022-10-02T16:41:27.905Z,14.92
2022-10-02T16:44:19.202Z,14.84
2022-10-02T16:46:55.094Z,14.76
2022-10-02T16:49:49.876Z,14.71
2022-10-02T16:52:41.330Z,14.63
2022-10-02T16:55:22.943Z,14.54
2022-10-02T16:57:58.150Z,14.45
2022-10-02T17:00:39.890Z,14.35
2022-10-02T17:03:19.496Z,14.29
2022-10-02T17:05:53.979Z,14.24
2022-10-02T17:08:51.182Z,14.17
2022-10-02T17:11:22.746Z,14.10
2022-10-02T17:14:04.397Z,14.06
2022-10-02T17:16:43.044Z,13.99
2022-10-02T17:19:27.618Z,13.94
2022-10-02T17:22:09.635Z,13.83
2022-10-02T17:24:49.253Z,13.81
2022-10-02T17:27:33.960Z,13.78
2022-10-02T17:30:18.756Z,13.75
2022-10-02T17:32:51.125Z,13.68
2022-10-02T17:35:32.155Z,13.62
2022-10-02T17:38:20.508Z,13.58
2022-10-02T17:40:54.053Z,13.54
2022-10-02T17:43:43.717Z,13.46
2022-10-02T17:46:19.240Z,13.40
2022-10-02T17:49:00.844Z,13.36
2022-10-02T17:51:54.233Z,13.30
2022-10-02T17:55:12.993Z,13.27
2022-10-02T17:58:26.898Z,13.20
2022-10-02T18:01:12.026Z,13.12
2022-10-02T18:04:09.010Z,13.07
2022-10-02T18:07:01.407Z,13.02
2022-10-02T18:09:43.739Z,12.98
2022-10-02T18:12:37.036Z,12.92
2022-10-02T18:15:26.230Z,12.88
2022-10-02T18:18:22.302Z,12.83
2022-10-02T18:21:22.818Z,12.78
2022-10-02T18:24:23.264Z,12.69
2022-10-02T18:27:18.231Z,12.68
2022-10-02T18:30:03.508Z,12.65
2022-10-02T18:32:46.541Z,12.61
2022-10-02T18:35:32.184Z,12.54
2022-10-02T18:38:25.587Z,12.50
2022-10-02T18:41:06.914Z,12.46
2022-10-02T18:43:59.031Z,12.41
2022-10-02T18:46:30.619Z,12.38
2022-10-02T18:49:18.396Z,12.32
2022-10-02T18:52:16.602Z,12.25
2022-10-02T18:55:02.928Z,12.20
2022-10-02T18:57:37.610Z,12.12
2022-10-02T19:00:27.961Z,12.10
2022-10-02T19:03:00.084Z,12.05
2022-10-02T19:05:38.876Z,12.01
2022-10-02T19:08:05.229Z,11.95
2022-10-02T19:10:31.538Z,11.88
2022-10-02T19:13:17.773Z,11.82
2022-10-02T19:15:48.288Z,11.76
2022-10-02T19:18:26.859Z,11.76
2022-10-02T19:20:57.690Z,11.70
2022-10-02T19:23:33.361Z,11.66
2022-10-02T19:26:05.688Z,11.61
2022-10-02T19:28:38.910Z,11.56
2022-10-02T19:31:09.201Z,11.51
2022-10-02T19:33:46.861Z,11.49
2022-10-02T19:36:17.820Z,11.46
2022-10-02T19:38:51.316Z,11.41
2022-10-02T19:41:18.717Z,11.36
2022-10-02T19:43:54.309Z,11.32
2022-10-02T19:46:31.067Z,11.28
2022-10-02T19:48:59.565Z,11.21
2022-10-02T19:51:25.950Z,11.14
2022-10-02T19:54:04.807Z,11.09
2022-10-02T19:56:42.094Z,11.06
2022-10-02T19:59:27.452Z,11.01
2022-10-02T20:01:59.367Z,10.96
2022-10-02T20:04:31.092Z,10.87
2022-10-02T20:06:59.598Z,10.78
2022-10-02T20:09:37.815Z,10.76
2022-10-02T20:12:11.867Z,10.75
2022-10-02T20:14:50.434Z,10.72
2022-10-02T20:17:18.899Z,10.65
2022-10-02T20:19:52.676Z,10.62
2022-10-02T20:22:30.087Z,10.58
2022-10-02T20:25:20.083Z,10.56
2022-10-02T20:28:00.043Z,10.56
2022-10-02T20:30:35.651Z,10.56
2022-10-02T20:33:09.836Z,10.54
2022-10-02T20:35:44.924Z,10.56
2022-10-02T20:38:23.847Z,10.56
2022-10-02T20:40:53.265Z,10.57
2022-10-02T20:43:33.219Z,10.54
2022-10-02T20:46:27.560Z,10.52
2022-10-02T20:49:15.503Z,10.47
2022-10-02T20:51:56.291Z,10.43
2022-10-02T20:55:01.411Z,10.38
2022-10-02T20:57:43.407Z,10.32
2022-10-02T21:00:20.692Z,10.31
2022-10-02T21:03:02.145Z,10.28
2022-10-02T21:05:48.620Z,10.22
2022-10-02T21:08:26.896Z,10.21
2022-10-02T21:11:16.507Z,10.16
2022-10-02T21:13:55.115Z,10.12
2022-10-02T21:16:30.148Z,10.08
2022-10-02T21:19:16.670Z,10.03
2022-10-02T21:21:55.759Z,10.01
2022-10-02T21:24:31.078Z,9.99
2022-10-02T21:27:27.732Z,9.99
2022-10-02T21:30:19.731Z,9.96
2022-10-02T21:33:10.973Z,9.94
2022-10-02T21:35:55.057Z,9.91
2022-10-02T21:38:42.069Z,9.89
2022-10-02T21:41:30.149Z,9.87
2022-10-02T21:44:25.763Z,9.85
2022-10-02T21:47:18.736Z,9.85
2022-10-02T21:49:52.357Z,9.82
2022-10-02T21:52:24.659Z,9.80
2022-10-02T21:55:21.242Z,9.76
2022-10-02T21:58:29.095Z,9.72
2022-10-02T22:01:01.213Z,9.67
2022-10-02T22:03:45.511Z,9.66
2022-10-02T22:06:25.799Z,9.64
2022-10-02T22:09:14.563Z,9.62
2022-10-02T22:11:48.978Z,9.60
2022-10-02T22:14:39.020Z,9.57
2022-10-02T22:17:33.954Z,9.56
2022-10-02T22:20:14.703Z,9.56
2022-10-02T22:22:58.998Z,9.52
2022-10-02T22:25:36.666Z,9.51
2022-10-02T22:28:34.268Z,9.51
2022-10-02T22:31:12.645Z,9.48
2022-10-02T22:34:06.440Z,9.46
2022-10-02T22:36:47.794Z,9.43
2022-10-02T22:39:26.935Z,9.41
2022-10-02T22:42:05.598Z,9.35
2022-10-02T22:44:42.641Z,9.31
2022-10-02T22:47:14.400Z,9.27
2022-10-02T22:49:51.275Z,9.25
2022-10-02T22:52:32.936Z,9.23
2022-10-02T22:55:23.160Z,9.21
2022-10-02T22:58:09.384Z,9.16
2022-10-02T23:01:13.973Z,9.13
2022-10-02T23:03:50.375Z,9.11
2022-10-02T23:06:33.579Z,9.11
2022-10-02T23:09:14.197Z,9.09
2022-10-02T23:12:06.351Z,9.05
2022-10-02T23:14:51.147Z,9.02
2022-10-02T23:17:45.508Z,9.00
2022-10-02T23:20:19.645Z,8.97
2022-10-02T23:22:59.664Z,8.94
2022-10-02T23:25:33.968Z,8.87
2022-10-02T23:28:04.819Z,8.86
2022-10-02T23:30:36.112Z,8.86
2022-10-02T23:33:04.346Z,8.81
2022-10-02T23:35:46.603Z,8.78
2022-10-02T23:38:25.367Z,8.76
2022-10-02T23:41:18.150Z,8.68
2022-10-02T23:43:54.755Z,8.62
2022-10-02T23:46:29.711Z,8.61
2022-10-02T23:48:56.425Z,8.60
2022-10-02T23:51:28.997Z,8.60
2022-10-02T23:54:30.163Z,8.60
2022-10-02T23:57:29.735Z,8.61
